Data for 01/05/2010

Time Sea-Level Adjusted Pressure Absolute Pressure Temperature Relative Humidity Dew Point   
(mb) (inHg) (mb) (inHg) (C) (F) (%) (C) (F)
00:05 1017 30.03 846 24.98 -0.9 30.4 97 -1.3 29.7
00:10 1017 30.03 846 24.98 -0.7 30.7 96 -1.2 29.8
00:15 1017 30.03 846 24.98 -0.7 30.8 96 -1.2 29.8
00:20 1017 30.03 846 24.98 -0.6 30.9 96 -1.2 29.9
00:25 1017 30.03 846 24.98 -0.5 31.1 95 -1.1 29.9
00:30 1017 30.03 846 24.98 -0.3 31.4 95 -1.1 30.1
00:35 1017 30.03 846 24.98 -0.2 31.6 94 -1 30.1
00:40 1017 30.03 846 24.98 -0.2 31.6 94 -1.1 30.1
00:45 1017 30.03 846 24.98 -0.3 31.5 94 -1.1 30
00:50 1017 30.03 846 24.98 -0.3 31.5 94 -1.1 30
00:55 1017 30.03 846 24.98 -0.2 31.6 94 -1.1 30
01:00 1017 30.03 846 24.98 -0.2 31.6 94 -1.1 30
01:05 1017 30.03 846 24.98 -0.3 31.4 93 -1.3 29.7
01:10 1017 30.03 846 24.98 -0.5 31.1 94 -1.4 29.6
01:15 1017 30.03 846 24.98 -0.6 31 94 -1.3 29.6
01:20 1017 30.03 846 24.98 -0.5 31 94 -1.3 29.6
01:25 1017 30.03 846 24.98 -0.6 31 94 -1.4 29.5
01:30 1017 30.03 846 24.98 -0.6 30.9 93 -1.6 29.1
01:35 1017 30.03 846 24.98 -1.2 29.9 95 -1.9 28.6
01:40 1017 30.03 846 24.98 -1.5 29.3 96 -2 28.3
01:45 1017 30.03 846 24.98 -1.7 29 96 -2.2 28
01:50 1017 30.03 846 24.98 -1.9 28.6 96 -2.4 27.6
01:55 1017 30.03 846 24.98 -2.1 28.2 97 -2.5 27.5
02:00 1017 30.03 846 24.98 -2.1 28.3 97 -2.5 27.6
02:05 1017 30.03 846 24.98 -2 28.3 97 -2.4 27.6
02:10 1017 30.03 846 24.98 -2 28.4 97 -2.4 27.7
02:15 1017 30.03 846 24.98 -2 28.4 97 -2.4 27.6
02:20 1017 30.03 846 24.98 -1.9 28.6 97 -2.3 27.8
02:25 1017 30.03 846 24.98 -1.7 28.9 97 -2.1 28.1
02:30 1017 30.03 846 24.98 -1.5 29.3 97 -2 28.4
02:35 1017 30.03 846 24.98 -1.5 29.4 96 -2 28.3
02:40 1017 30.03 846 24.98 -1.5 29.3 96 -2.1 28.1
02:45 1017 30.03 846 24.98 -1.5 29.4 96 -2 28.4
02:50 1017 30.03 846 24.98 -1.3 29.6 97 -1.8 28.8
02:55 1017 30.03 846 24.98 -1.3 29.6 96 -1.8 28.7
03:00 1017 30.03 846 24.98 -1.4 29.5 97 -1.8 28.7
03:05 1017 30.03 846 24.98 -1.3 29.7 97 -1.7 28.9
03:10 1017 30.03 846 24.98 -1.2 29.8 97 -1.7 28.9
03:15 1017 30.03 846 24.98 -1.2 29.8 97 -1.7 29
03:20 1017 30.03 846 24.98 -1.3 29.7 97 -1.7 28.9
03:25 1017 30.03 846 24.98 -1.2 29.8 97 -1.6 29.1
03:30 1017 30.03 846 24.98 -1.1 30 97 -1.5 29.2
03:35 1017 30.03 846 24.98 -1.2 29.8 96 -1.7 28.9
03:40 1017 30.03 846 24.98 -1.5 29.4 97 -1.9 28.6
03:45 1017 30.03 846 24.98 -1.6 29.1 97 -2 28.3
03:50 1017 30.03 846 24.98 -1.7 29 97 -2.1 28.3
03:55 1016 30 846 24.98 -1.7 29 98 -2 28.4
04:00 1016 30 846 24.98 -1.6 29.1 98 -1.9 28.5
04:05 1016 30 845 24.95 -1.5 29.3 98 -1.7 28.9
04:10 1016 30 845 24.95 -1.3 29.6 99 -1.5 29.3
04:15 1016 30 845 24.95 -1.3 29.7 99 -1.4 29.5
04:20 1016 30 845 24.95 -1.2 29.8 99 -1.4 29.5
04:25 1016 30 845 24.95 -1.2 29.8 99 -1.4 29.5
04:30 1016 30 845 24.95 -1.2 29.9 99 -1.3 29.6
04:35 1016 30 845 24.95 -1.1 30 99 -1.2 29.8
04:40 1016 30 845 24.95 -1.1 30.1 99 -1.2 29.8
04:45 1016 30 845 24.95 -1 30.2 99 -1.1 30
04:50 1016 30 845 24.95 -1 30.2 99 -1.2 29.9
04:55 1016 30 845 24.95 -1.1 30.1 98 -1.3 29.6
05:00 1016 30 845 24.95 -1.1 30 98 -1.4 29.5
05:05 1016 30 845 24.95 -1.1 30.1 98 -1.4 29.5
05:10 1016 30 845 24.95 -1 30.2 98 -1.3 29.7
05:15 1016 30 845 24.95 -0.9 30.5 98 -1.2 29.9
05:20 1016 30 845 24.95 -0.8 30.6 97 -1.2 29.9
05:25 1016 30 845 24.95 -0.6 30.9 97 -1.1 30.1
05:30 1016 30 845 24.95 -0.5 31.2 96 -1.1 30.1
05:35 1016 30 845 24.95 -0.2 31.6 94 -1.1 30
05:40 1016 30 845 24.95 -0.2 31.7 93 -1.2 29.9
05:45 1016 30 845 24.95 -0.1 31.8 92 -1.2 29.9
05:50 1016 30 845 24.95 0 32 92 -1.2 29.9
05:55 1016 30 845 24.95 -0 31.9 93 -1.1 30.1
06:00 1016 30 845 24.95 -0 31.9 93 -1 30.2
06:05 1015 29.97 845 24.95 -0.1 31.8 94 -1 30.2
06:10 1015 29.97 845 24.95 -0.1 31.7 94 -1 30.2
06:15 1015 29.97 845 24.95 -0.2 31.7 94 -1 30.2
06:20 1015 29.97 844 24.92 -0.2 31.7 94 -1 30.2
06:25 1015 29.97 844 24.92 -0.2 31.7 93 -1.1 30
06:30 1015 29.97 844 24.92 -0 31.9 92 -1.2 29.9
06:35 1015 29.97 844 24.92 -0.1 31.9 92 -1.2 29.8
06:40 1015 29.97 844 24.92 -0.1 31.8 92 -1.3 29.6
06:45 1015 29.97 844 24.92 -0.2 31.7 92 -1.3 29.6
06:50 1015 29.97 844 24.92 -0.2 31.6 92 -1.4 29.5
06:55 1015 29.97 844 24.92 -0.1 31.8 91 -1.5 29.4
07:00 1015 29.97 844 24.92 0 32 90 -1.5 29.3
07:05 1015 29.97 844 24.92 0.1 32.2 89 -1.5 29.2
07:10 1015 29.97 844 24.92 0.2 32.4 88 -1.5 29.3
07:15 1015 29.97 844 24.92 0.3 32.5 88 -1.5 29.2
07:20 1015 29.97 844 24.92 0.2 32.3 89 -1.5 29.4
07:25 1015 29.97 844 24.92 0.2 32.3 88 -1.6 29.2
07:30 1015 29.97 844 24.92 0.2 32.4 87 -1.6 29.1
07:35 1015 29.97 844 24.92 0.4 32.8 87 -1.5 29.3
07:40 1015 29.97 844 24.92 0.3 32.5 88 -1.4 29.4
07:45 1015 29.97 844 24.92 0.3 32.5 87 -1.7 29
07:50 1015 29.97 844 24.92 0.5 32.8 87 -1.5 29.4
07:55 1015 29.97 844 24.92 0.4 32.8 87 -1.5 29.2
08:00 1015 29.97 844 24.92 0.5 32.9 86 -1.6 29.1
08:05 1015 29.97 844 24.92 0.6 33.1 85 -1.7 29
08:10 1015 29.97 844 24.92 0.7 33.2 84 -1.7 29
08:15 1014 29.94 844 24.92 0.7 33.3 84 -1.6 29
08:20 1015 29.97 844 24.92 0.8 33.4 83 -1.8 28.7
08:25 1015 29.97 844 24.92 0.9 33.6 83 -1.7 28.9
08:30 1015 29.97 844 24.92 0.9 33.7 82 -1.8 28.8
08:35 1015 29.97 844 24.92 1 33.8 83 -1.6 29.1
08:40 1015 29.97 844 24.92 1 33.7 84 -1.5 29.3
08:45 1015 29.97 844 24.92 0.9 33.6 83 -1.7 29
08:50 1014 29.94 844 24.92 0.9 33.6 83 -1.6 29
08:55 1014 29.94 844 24.92 0.9 33.6 84 -1.6 29.1
09:00 1015 29.97 844 24.92 0.8 33.5 84 -1.6 29
09:05 1015 29.97 844 24.92 0.8 33.4 85 -1.5 29.3
09:10 1015 29.97 844 24.92 0.8 33.4 84 -1.6 29.1
09:15 1015 29.97 844 24.92 0.9 33.7 83 -1.6 29.2
09:20 1015 29.97 844 24.92 1 33.8 83 -1.6 29.2
09:25 1015 29.97 844 24.92 1.1 34 83 -1.5 29.3
09:30 1015 29.97 844 24.92 1.2 34.2 82 -1.5 29.4
09:35 1015 29.97 844 24.92 1.3 34.3 82 -1.5 29.3
09:40 1015 29.97 844 24.92 1.4 34.5 81 -1.4 29.4
09:45 1015 29.97 844 24.92 1.5 34.7 81 -1.4 29.4
09:50 1015 29.97 844 24.92 1.8 35.2 77 -1.9 28.6
09:55 1015 29.97 844 24.92 2.3 36.1 74 -1.9 28.6
10:00 1015 29.97 844 24.92 2.6 36.6 74 -1.6 29.2
10:05 1015 29.97 844 24.92 2.4 36.4 74 -1.7 28.9
10:10 1015 29.97 844 24.92 2.3 36.2 75 -1.7 28.9
10:15 1015 29.97 844 24.92 2.4 36.3 76 -1.4 29.5
10:20 1015 29.97 844 24.92 2.3 36.2 78 -1 30.1
10:25 1015 29.97 844 24.92 2.2 36 79 -1 30.2
10:30 1015 29.97 844 24.92 2.2 36 79 -1.1 30.1
10:35 1015 29.97 844 24.92 2.1 35.8 78 -1.3 29.7
10:40 1015 29.97 844 24.92 2.3 36.2 78 -1 30.1
10:45 1015 29.97 844 24.92 2.5 36.6 77 -1.1 30
10:50 1015 29.97 844 24.92 2.6 36.7 77 -1.1 30.1
10:55 1015 29.97 844 24.92 2.1 35.8 80 -1 30.3
11:00 1015 29.97 844 24.92 2.1 35.7 81 -0.9 30.4
11:05 1015 29.97 844 24.92 2.3 36.1 80 -0.8 30.6
11:10 1015 29.97 844 24.92 2.2 36 81 -0.8 30.6
11:15 1015 29.97 844 24.92 2.1 35.8 83 -0.5 31.1
11:20 1015 29.97 844 24.92 2.2 35.9 82 -0.5 31.1
11:25 1015 29.97 844 24.92 2.1 35.7 84 -0.3 31.5
11:30 1015 29.97 844 24.92 1.9 35.5 86 -0.1 31.8
11:35 1015 29.97 844 24.92 1.8 35.3 87 -0.1 31.8
11:40 1015 29.97 844 24.92 1.7 35 88 -0.1 31.7
11:45 1015 29.97 844 24.92 1.5 34.7 89 -0.2 31.7
11:50 1015 29.97 844 24.92 1.5 34.8 87 -0.3 31.4
11:55 1015 29.97 844 24.92 1.6 34.8 88 -0.2 31.6
12:00 1015 29.97 844 24.92 1.8 35.2 87 -0.1 31.8
12:05 1015 29.97 844 24.92 2.1 35.9 86 -0 31.9
12:10 1014 29.94 844 24.92 2.3 36.1 85 0 32
12:15 1014 29.94 844 24.92 2.2 36 85 -0.1 31.8
12:20 1014 29.94 844 24.92 2.1 35.8 86 -0.1 31.9
12:25 1014 29.94 843 24.89 2.2 36 86 0 32.1
12:30 1014 29.94 843 24.89 2.4 36.3 85 0.1 32.2
12:35 1014 29.94 843 24.89 2.6 36.6 84 0.1 32.2
12:40 1014 29.94 843 24.89 2.8 37 82 0.1 32.1
12:45 1014 29.94 843 24.89 3 37.4 82 0.2 32.3
12:50 1014 29.94 843 24.89 3 37.4 80 -0.1 31.8
12:55 1014 29.94 843 24.89 3.1 37.6 80 -0.1 31.9
13:00 1014 29.94 843 24.89 3.2 37.7 80 0.1 32.2
13:05 1014 29.94 843 24.89 3.1 37.6 80 0.1 32.1
13:10 1014 29.94 843 24.89 3.2 37.7 81 0.2 32.4
13:15 1014 29.94 843 24.89 3.3 38 80 0.1 32.3
13:20 1014 29.94 843 24.89 3.2 37.7 81 0.1 32.3
13:25 1014 29.94 843 24.89 3 37.4 82 0.2 32.3
13:30 1014 29.94 843 24.89 3.2 37.7 80 0 32
13:35 1014 29.94 843 24.89 3.1 37.6 81 0.2 32.4
13:40 1014 29.94 843 24.89 3.3 37.9 81 0.4 32.7
13:45 1014 29.94 843 24.89 3.4 38.1 79 0.2 32.3
13:50 1014 29.94 843 24.89 3.4 38.1 80 0.3 32.5
13:55 1014 29.94 843 24.89 3.3 38 80 0.3 32.5
14:00 1014 29.94 843 24.89 3.3 37.9 82 0.4 32.8
14:05 1014 29.94 843 24.89 3.4 38 82 0.5 32.9
14:10 1014 29.94 843 24.89 3.4 38.1 82 0.5 32.9
14:15 1014 29.94 843 24.89 3.4 38.1 81 0.5 32.9
14:20 1014 29.94 843 24.89 3.4 38.1 82 0.6 33.2
14:25 1014 29.94 843 24.89 3.3 38 83 0.7 33.3
14:30 1014 29.94 843 24.89 3.1 37.6 84 0.6 33.1
14:35 1014 29.94 843 24.89 3 37.4 84 0.5 32.9
14:40 1014 29.94 843 24.89 3 37.5 84 0.6 33.2
14:45 1014 29.94 843 24.89 3.1 37.5 84 0.7 33.2
14:50 1014 29.94 843 24.89 3.1 37.5 84 0.7 33.3
14:55 1014 29.94 843 24.89 3 37.4 84 0.6 33.1
15:00 1014 29.94 843 24.89 2.9 37.3 85 0.6 33.1
15:05 1014 29.94 843 24.89 2.8 37.1 85 0.5 32.9
15:10 1014 29.94 843 24.89 2.7 36.8 85 0.5 32.9
15:15 1014 29.94 843 24.89 2.5 36.5 86 0.4 32.8
15:20 1014 29.94 843 24.89 2.2 36 87 0.3 32.5
15:25 1014 29.94 843 24.89 2 35.6 89 0.3 32.5
15:30 1014 29.94 843 24.89 1.8 35.3 90 0.4 32.7
15:35 1014 29.94 843 24.89 1.8 35.3 90 0.4 32.7
15:40 1014 29.94 843 24.89 1.9 35.5 90 0.5 32.9
15:45 1014 29.94 843 24.89 2 35.6 90 0.5 33
15:50 1014 29.94 843 24.89 2.1 35.8 89 0.5 32.9
15:55 1014 29.94 843 24.89 2 35.5 90 0.4 32.8
16:00 1014 29.94 843 24.89 1.9 35.3 91 0.5 32.9
16:05 1014 29.94 843 24.89 1.9 35.5 91 0.6 33
16:10 1014 29.94 843 24.89 1.9 35.5 90 0.5 32.9
16:15 1014 29.94 843 24.89 1.9 35.4 91 0.5 32.9
16:20 1014 29.94 843 24.89 1.8 35.3 91 0.4 32.8
16:25 1014 29.94 843 24.89 1.7 35.1 91 0.4 32.7
16:30 1014 29.94 843 24.89 1.6 34.8 92 0.3 32.6
16:35 1014 29.94 843 24.89 1.4 34.6 92 0.2 32.4
16:40 1014 29.94 843 24.89 1.3 34.3 92 0.2 32.3
16:45 1014 29.94 843 24.89 1.1 34.1 93 0.1 32.2
16:50 1014 29.94 843 24.89 1 33.8 93 0 32.1
16:55 1014 29.94 843 24.89 0.9 33.6 94 0 32
17:00 1014 29.94 843 24.89 0.8 33.5 94 0 32
17:05 1014 29.94 843 24.89 0.8 33.4 94 -0 31.9
17:10 1014 29.94 843 24.89 0.6 33.1 95 -0.1 31.9
17:15 1014 29.94 843 24.89 0.5 32.9 95 -0.2 31.7
17:20 1014 29.94 843 24.89 0.3 32.6 96 -0.3 31.5
17:25 1014 29.94 843 24.89 0.2 32.3 96 -0.5 31.2
17:30 1014 29.94 844 24.92 -0.3 31.5 95 -0.9 30.3
17:35 1014 29.94 844 24.92 -0.6 30.8 96 -1.2 29.8
17:40 1014 29.94 844 24.92 -1.1 30 95 -1.8 28.7
17:45 1014 29.94 844 24.92 -1.6 29 94 -2.5 27.6
17:50 1015 29.97 844 24.92 -2 28.5 94 -2.8 27
17:55 1015 29.97 844 24.92 -2.4 27.7 94 -3.3 26.1
18:00 1015 29.97 844 24.92 -2.7 27.1 93 -3.8 25.2
18:05 1015 29.97 844 24.92 -3.2 26.2 93 -4.3 24.3
18:10 1015 29.97 844 24.92 -3.5 25.7 93 -4.4 24
18:15 1015 29.97 844 24.92 -3.8 25.2 92 -4.9 23.2
18:20 1015 29.97 844 24.92 -4.1 24.7 92 -5.1 22.8
18:25 1015 29.97 844 24.92 -4.3 24.2 91 -5.6 22
18:30 1015 29.97 844 24.92 -4.7 23.5 92 -5.8 21.5
18:35 1015 29.97 844 24.92 -5.1 22.9 91 -6.3 20.7
18:40 1015 29.97 844 24.92 -5.5 22.2 91 -6.7 19.9
18:45 1015 29.97 845 24.95 -5.9 21.4 91 -7.2 19.1
18:50 1016 30 845 24.95 -6.2 20.8 92 -7.3 18.8
18:55 1016 30 845 24.95 -6.4 20.4 91 -7.7 18.2
19:00 1016 30 845 24.95 -6.8 19.8 92 -7.9 17.8
19:05 1016 30 845 24.95 -6.8 19.8 91 -8 17.6
19:10 1016 30 845 24.95 -6.9 19.6 90 -8.2 17.2
19:15 1016 30 845 24.95 -7.1 19.2 92 -8.3 17.1
19:20 1016 30 845 24.95 -7 19.3 90 -8.4 16.9
19:25 1016 30 845 24.95 -7.3 18.9 89 -8.7 16.3
19:30 1016 30 845 24.95 -7.5 18.4 91 -8.8 16.2
19:35 1016 30 845 24.95 -7.6 18.2 91 -8.9 16
19:40 1016 30 846 24.98 -7.8 17.9 91 -9.1 15.6
19:45 1017 30.03 846 24.98 -8.1 17.4 91 -9.3 15.2
19:50 1017 30.03 846 24.98 -8.3 17.1 90 -9.6 14.7
19:55 1017 30.03 846 24.98 -8.4 16.9 90 -9.8 14.4
20:00 1017 30.03 846 24.98 -8.6 16.5 90 -10 13.9
20:05 1017 30.03 846 24.98 -8.8 16.2 90 -10.1 13.8
20:10 1017 30.03 847 25.01 -8.9 16.1 90 -10.2 13.6
20:15 1017 30.03 847 25.01 -9 15.9 89 -10.5 13.1
20:20 1018 30.06 847 25.01 -9.2 15.4 89 -10.8 12.6
20:25 1018 30.06 847 25.01 -9.5 15 90 -10.9 12.4
20:30 1018 30.06 847 25.01 -9.5 14.9 89 -11 12.3
20:35 1018 30.06 847 25.01 -9.6 14.7 89 -11 12.1
20:40 1018 30.06 847 25.01 -9.7 14.5 89 -11.2 11.9
20:45 1018 30.06 848 25.04 -9.9 14.1 88 -11.5 11.2
20:50 1018 30.06 848 25.04 -10.1 13.8 88 -11.8 10.8
20:55 1019 30.09 848 25.04 -10.3 13.5 87 -12 10.4
21:00 1019 30.09 848 25.04 -10.4 13.3 86 -12.3 9.8
21:05 1019 30.09 848 25.04 -10.5 13 87 -12.3 9.9
21:10 1019 30.09 848 25.04 -10.6 12.9 87 -12.3 9.8
21:15 1019 30.09 848 25.04 -10.7 12.8 89 -12.1 10.2
21:20 1019 30.09 848 25.04 -10.7 12.8 87 -12.4 9.6
21:25 1019 30.09 848 25.04 -10.9 12.5 87 -12.6 9.4
21:30 1019 30.09 848 25.04 -10.9 12.3 88 -12.6 9.3
21:35 1019 30.09 848 25.04 -11 12.2 88 -12.7 9.2
21:40 1019 30.09 848 25.04 -11 12.3 88 -12.6 9.3
21:45 1019 30.09 848 25.04 -11 12.2 88 -12.6 9.3
21:50 1019 30.09 849 25.07 -11.1 12.1 88 -12.6 9.3
21:55 1019 30.09 849 25.07 -11 12.2 89 -12.5 9.6
22:00 1020 30.12 849 25.07 -11 12.2 87 -12.7 9.1
22:05 1020 30.12 849 25.07 -11.3 11.8 85 -13.4 7.9
22:10 1020 30.12 849 25.07 -11.5 11.3 84 -13.6 7.4
22:15 1020 30.12 849 25.07 -11.7 10.9 84 -13.9 7
22:20 1020 30.12 849 25.07 -11.9 10.6 84 -14 6.7
22:25 1020 30.12 849 25.07 -12.1 10.2 85 -14.1 6.6
22:30 1020 30.12 849 25.07 -12.3 9.8 85 -14.3 6.2
22:35 1020 30.12 850 25.1 -12.6 9.3 86 -14.5 5.9
22:40 1021 30.15 850 25.1 -12.9 8.8 87 -14.7 5.6
22:45 1021 30.15 850 25.1 -13 8.5 86 -14.9 5.3
22:50 1021 30.15 850 25.1 -13.2 8.3 87 -15 5.1
22:55 1021 30.15 850 25.1 -13.6 7.6 88 -15.2 4.7
23:00 1021 30.15 850 25.1 -13.7 7.4 87 -15.4 4.3
23:05 1021 30.15 850 25.1 -13.8 7.3 88 -15.4 4.3
23:10 1021 30.15 851 25.13 -13.8 7.2 88 -15.4 4.3
23:15 1021 30.15 851 25.13 -13.8 7.1 88 -15.4 4.3
23:20 1021 30.15 851 25.13 -13.8 7.2 87 -15.4 4.2
23:25 1021 30.15 851 25.13 -13.9 7.1 86 -15.7 3.8
23:30 1022 30.18 851 25.13 -14 6.9 87 -15.7 3.7
23:35 1022 30.18 851 25.13 -13.8 7.1 85 -15.8 3.5
23:40 1022 30.18 851 25.13 -14 6.8 86 -15.9 3.3
23:45 1022 30.18 851 25.13 -14.1 6.6 85 -16.2 2.9
23:50 1022 30.18 851 25.13 -14.1 6.6 85 -16.1 3
23:55 1022 30.18 851 25.13 -14.2 6.5 84 -16.4 2.5
24:00 1022 30.18 851 25.13 -14.3 6.2 84 -16.4 2.5